createdAt,value
2022-09-12T00:01:17.215Z,70.00
2022-09-12T00:03:44.681Z,68.15
2022-09-12T00:06:25.497Z,71.41
2022-09-12T00:08:55.475Z,69.60
2022-09-12T00:11:22.947Z,68.53
2022-09-12T00:13:50.354Z,68.53
2022-09-12T00:16:21.099Z,69.77
2022-09-12T00:18:48.956Z,69.16
2022-09-12T00:21:18.208Z,70.34
2022-09-12T00:23:46.237Z,69.86
2022-09-12T00:26:14.488Z,70.53
2022-09-12T00:28:42.324Z,69.98
2022-09-12T00:31:24.197Z,72.32
2022-09-12T00:33:53.280Z,69.68
2022-09-12T00:36:23.137Z,70.39
2022-09-12T00:38:51.535Z,70.43
2022-09-12T00:41:22.101Z,71.46
2022-09-12T00:43:53.126Z,70.73
2022-09-12T00:46:23.134Z,70.18
2022-09-12T00:49:14.980Z,71.57
2022-09-12T00:51:49.635Z,71.36
2022-09-12T00:54:22.434Z,70.85
2022-09-12T00:56:52.456Z,70.64
2022-09-12T00:59:27.812Z,72.74
2022-09-12T01:01:56.612Z,69.96
2022-09-12T01:04:28.561Z,71.23
2022-09-12T01:06:58.401Z,70.58
2022-09-12T01:09:26.620Z,70.05
2022-09-12T01:11:55.223Z,70.11
2022-09-12T01:14:22.762Z,69.57
2022-09-12T01:16:51.550Z,70.39
2022-09-12T01:19:32.112Z,73.08
2022-09-12T01:22:02.248Z,69.45
2022-09-12T01:24:51.912Z,72.73
2022-09-12T01:27:27.198Z,70.86
2022-09-12T01:30:17.899Z,71.01
2022-09-12T01:33:14.717Z,72.27
2022-09-12T01:36:20.869Z,70.32
2022-09-12T01:38:54.411Z,70.25
2022-09-12T01:41:33.829Z,72.66
2022-09-12T01:44:04.379Z,71.30
2022-09-12T01:46:37.386Z,71.28
2022-09-12T01:49:25.924Z,73.08
2022-09-12T01:52:23.418Z,73.37
2022-09-12T01:54:59.971Z,71.09
2022-09-12T01:57:56.694Z,71.24
2022-09-12T02:00:24.625Z,69.66
2022-09-12T02:03:11.892Z,70.30
2022-09-12T02:05:56.794Z,72.30
2022-09-12T02:08:41.685Z,70.79
2022-09-12T02:11:12.113Z,70.46
2022-09-12T02:13:48.223Z,72.14
2022-09-12T02:16:37.740Z,71.51
2022-09-12T02:19:24.535Z,71.59
2022-09-12T02:21:58.780Z,70.67
2022-09-12T02:24:32.061Z,70.91
2022-09-12T02:27:27.086Z,72.08
2022-09-12T02:29:54.740Z,69.91
2022-09-12T02:32:35.865Z,71.89
2022-09-12T02:35:35.830Z,71.15
2022-09-12T02:38:17.089Z,72.11
2022-09-12T02:40:44.720Z,69.98
2022-09-12T02:43:12.120Z,69.95
2022-09-12T02:45:39.696Z,70.44
2022-09-12T02:48:13.429Z,71.19
2022-09-12T02:50:42.334Z,70.28
2022-09-12T02:53:10.876Z,70.24
2022-09-12T02:55:40.472Z,70.51
2022-09-12T02:58:13.661Z,70.48
2022-09-12T03:00:51.458Z,70.63
2022-09-12T03:03:46.806Z,72.91
2022-09-12T03:06:51.199Z,73.00
2022-09-12T03:09:24.680Z,71.86
2022-09-12T03:12:07.199Z,71.88
2022-09-12T03:14:53.010Z,71.89
2022-09-12T03:17:35.609Z,71.00
2022-09-12T03:20:11.032Z,69.39
2022-09-12T03:22:54.027Z,70.80
2022-09-12T03:25:26.424Z,70.10
2022-09-12T03:28:20.757Z,71.46
2022-09-12T03:30:51.626Z,69.52
2022-09-12T03:33:21.891Z,69.78
2022-09-12T03:35:52.019Z,69.80
2022-09-12T03:38:20.264Z,69.30
2022-09-12T03:40:51.378Z,68.92
2022-09-12T03:43:22.076Z,69.11
2022-09-12T03:45:53.682Z,70.00
2022-09-12T03:48:21.527Z,68.34
2022-09-12T03:50:49.062Z,68.54
2022-09-12T03:53:17.361Z,68.24
2022-09-12T03:55:45.217Z,68.37
2022-09-12T03:58:12.867Z,68.41
2022-09-12T04:00:41.302Z,67.96
2022-09-12T04:03:09.450Z,68.35
2022-09-12T04:05:37.144Z,67.32
2022-09-12T04:08:04.796Z,67.16
2022-09-12T04:10:32.779Z,66.89
2022-09-12T04:13:00.146Z,66.80
2022-09-12T04:15:27.680Z,66.39
2022-09-12T04:17:55.395Z,66.89
2022-09-12T04:20:22.948Z,66.25
2022-09-12T04:22:50.364Z,65.54
2022-09-12T04:25:17.878Z,64.96
2022-09-12T04:27:45.335Z,64.56
2022-09-12T04:30:13.238Z,63.93
2022-09-12T04:32:41.673Z,63.85
2022-09-12T04:35:09.232Z,63.65
2022-09-12T04:37:36.655Z,62.96
2022-09-12T04:40:04.550Z,62.31
2022-09-12T04:42:32.293Z,61.72
2022-09-12T04:44:59.843Z,61.29
2022-09-12T04:47:27.396Z,61.56
2022-09-12T04:49:55.838Z,61.33
2022-09-12T04:52:23.248Z,59.33
2022-09-12T04:54:50.875Z,59.43
2022-09-12T04:57:18.332Z,59.29
2022-09-12T04:59:45.699Z,58.13
2022-09-12T05:02:13.324Z,57.98
2022-09-12T05:04:40.956Z,58.45
2022-09-12T05:07:08.465Z,58.41
2022-09-12T05:09:35.826Z,58.84
2022-09-12T05:12:05.540Z,58.96
2022-09-12T05:14:34.503Z,58.30
2022-09-12T05:17:02.866Z,58.33
2022-09-12T05:19:31.603Z,57.68
2022-09-12T05:21:59.403Z,57.70
2022-09-12T05:24:26.935Z,57.03
2022-09-12T05:26:54.450Z,56.68
2022-09-12T05:29:21.871Z,56.61
2022-09-12T05:31:52.460Z,55.82
2022-09-12T05:34:21.202Z,55.86
2022-09-12T05:36:48.846Z,55.25
2022-09-12T05:39:16.374Z,55.37
2022-09-12T05:41:43.708Z,54.63
2022-09-12T05:44:12.890Z,54.58
2022-09-12T05:46:44.485Z,54.39
2022-09-12T05:49:13.862Z,53.58
2022-09-12T05:51:44.007Z,53.83
2022-09-12T05:54:13.646Z,53.51
2022-09-12T05:56:43.477Z,53.24
2022-09-12T05:59:19.693Z,53.53
2022-09-12T06:01:48.094Z,52.61
2022-09-12T06:04:16.097Z,52.37
2022-09-12T06:06:45.420Z,52.64
2022-09-12T06:09:15.429Z,52.16
2022-09-12T06:11:43.944Z,51.75
2022-09-12T06:14:13.871Z,51.23
2022-09-12T06:16:41.545Z,51.02
2022-09-12T06:19:16.320Z,50.36
2022-09-12T06:21:44.427Z,50.16
2022-09-12T06:24:12.196Z,49.38
2022-09-12T06:26:39.675Z,49.16
2022-09-12T06:29:08.006Z,48.85
2022-09-12T06:31:38.189Z,48.58
2022-09-12T06:34:08.513Z,47.93
2022-09-12T06:36:41.830Z,47.92
2022-09-12T06:39:12.681Z,47.31
2022-09-12T06:41:43.666Z,46.55
2022-09-12T06:44:20.726Z,45.84
2022-09-12T06:46:48.553Z,45.70
2022-09-12T06:49:16.161Z,45.51
2022-09-12T06:51:43.654Z,45.03
2022-09-12T06:54:15.841Z,44.23
2022-09-12T06:56:45.054Z,43.99
2022-09-12T06:59:12.646Z,43.27
2022-09-12T07:01:42.258Z,42.96
2022-09-12T07:04:10.397Z,42.02
2022-09-12T07:06:40.920Z,41.67
2022-09-12T07:09:11.983Z,41.88
2022-09-12T07:11:41.936Z,41.48
2022-09-12T07:14:12.326Z,41.51
2022-09-12T07:16:40.491Z,41.39
2022-09-12T07:19:08.588Z,41.18
2022-09-12T07:21:40.465Z,40.61
2022-09-12T07:24:10.553Z,40.35
2022-09-12T07:26:40.242Z,40.33
2022-09-12T07:32:02.074Z,41.40
2022-09-12T07:34:29.435Z,38.90
2022-09-12T07:36:56.840Z,39.12
2022-09-12T07:39:24.391Z,38.22
2022-09-12T07:41:51.805Z,38.32
2022-09-12T07:44:19.211Z,37.73
2022-09-12T07:46:46.694Z,37.65
2022-09-12T07:49:14.128Z,36.89
2022-09-12T07:51:41.607Z,36.65
2022-09-12T07:54:09.844Z,36.40
2022-09-12T07:56:39.433Z,36.09
2022-09-12T07:59:08.385Z,36.16
2022-09-12T08:01:36.178Z,36.30
2022-09-12T08:04:05.409Z,35.86
2022-09-12T08:06:36.133Z,35.52
2022-09-12T08:09:05.380Z,35.22
2022-09-12T08:11:32.768Z,34.71
2022-09-12T08:14:02.024Z,34.32
2022-09-12T08:16:31.569Z,34.58
2022-09-12T08:19:01.038Z,34.60
2022-09-12T08:21:31.340Z,34.32
2022-09-12T08:24:01.321Z,34.00
2022-09-12T08:26:29.589Z,34.48
2022-09-12T08:28:57.023Z,34.74
2022-09-12T08:31:26.261Z,35.24
2022-09-12T08:33:57.043Z,35.58
2022-09-12T08:36:27.650Z,35.46
2022-09-12T08:38:59.880Z,35.16
2022-09-12T08:41:41.414Z,35.32
2022-09-12T08:44:20.934Z,35.26
2022-09-12T08:47:15.460Z,35.38
2022-09-12T08:49:57.780Z,35.50
2022-09-12T08:52:50.210Z,35.78
2022-09-12T08:55:27.905Z,36.16
2022-09-12T08:57:56.078Z,36.08
2022-09-12T09:00:23.968Z,35.98
2022-09-12T09:03:29.903Z,35.96
2022-09-12T09:06:34.324Z,36.05
2022-09-12T09:09:24.621Z,35.61
2022-09-12T09:12:13.494Z,35.83
2022-09-12T09:15:21.723Z,36.04
2022-09-12T09:17:54.906Z,35.95
2022-09-12T09:20:37.660Z,36.35
2022-09-12T09:23:31.704Z,35.89
2022-09-12T09:26:08.039Z,36.02
2022-09-12T09:28:53.409Z,36.16
2022-09-12T09:31:24.185Z,35.91
2022-09-12T09:33:56.672Z,35.68
2022-09-12T09:36:35.869Z,35.93
2022-09-12T09:39:09.436Z,35.00
2022-09-12T09:42:00.045Z,34.92
2022-09-12T09:44:30.479Z,34.30
2022-09-12T09:47:00.131Z,34.24
2022-09-12T09:49:31.562Z,33.73
2022-09-12T09:52:01.318Z,34.24
2022-09-12T09:54:53.527Z,34.69
2022-09-12T09:57:36.402Z,35.50
2022-09-12T10:00:37.106Z,35.50
2022-09-12T10:03:25.477Z,35.36
2022-09-12T10:05:55.435Z,35.43
2022-09-12T10:08:32.286Z,35.54
2022-09-12T10:11:08.117Z,35.30
2022-09-12T10:13:42.166Z,35.47
2022-09-12T10:16:20.989Z,35.50
2022-09-12T10:18:51.337Z,35.15
2022-09-12T10:21:36.093Z,35.46
2022-09-12T10:24:19.156Z,35.59
2022-09-12T10:26:53.259Z,35.65
2022-09-12T10:29:28.508Z,35.57
2022-09-12T10:31:59.079Z,36.20
2022-09-12T10:34:43.798Z,36.48
2022-09-12T10:37:42.188Z,36.55
2022-09-12T10:40:24.678Z,36.48
2022-09-12T10:42:56.922Z,37.00
2022-09-12T10:45:31.008Z,36.98
2022-09-12T10:48:06.772Z,37.34
2022-09-12T10:50:43.333Z,38.16
2022-09-12T10:53:22.936Z,38.14
2022-09-12T10:56:03.344Z,38.68
2022-09-12T10:59:07.393Z,38.99
2022-09-12T11:01:40.690Z,39.49
2022-09-12T11:04:29.467Z,39.40
2022-09-12T11:07:18.710Z,40.29
2022-09-12T11:10:01.546Z,40.29
2022-09-12T11:13:00.221Z,40.68
2022-09-12T11:15:33.052Z,41.40
2022-09-12T11:18:24.657Z,41.21
2022-09-12T11:21:10.131Z,41.56
2022-09-12T11:23:53.738Z,40.68
2022-09-12T11:26:49.388Z,41.38
2022-09-12T11:29:24.985Z,42.20
2022-09-12T11:32:18.744Z,41.59
2022-09-12T11:35:04.897Z,41.51
2022-09-12T11:37:32.335Z,41.64
2022-09-12T11:40:23.223Z,42.55
2022-09-12T11:42:55.845Z,42.38
2022-09-12T11:45:31.394Z,42.50
2022-09-12T11:48:04.678Z,42.44
2022-09-12T11:50:32.680Z,41.72
2022-09-12T11:53:15.457Z,41.93
2022-09-12T11:55:59.570Z,42.36
2022-09-12T11:58:29.558Z,42.14
2022-09-12T12:01:08.019Z,43.01
2022-09-12T12:03:43.846Z,43.64
2022-09-12T12:06:21.556Z,43.81
2022-09-12T12:08:50.901Z,42.92
2022-09-12T12:11:38.799Z,43.08
2022-09-12T12:14:32.671Z,42.17
2022-09-12T12:17:00.460Z,42.62
2022-09-12T12:19:37.064Z,44.41
2022-09-12T12:22:17.475Z,44.25
2022-09-12T12:25:21.398Z,43.28
2022-09-12T12:27:59.343Z,44.57
2022-09-12T12:30:29.796Z,45.88
2022-09-12T12:33:01.696Z,45.22
2022-09-12T12:36:00.101Z,44.41
2022-09-12T12:38:36.751Z,45.98
2022-09-12T12:41:19.183Z,45.93
2022-09-12T12:43:53.948Z,47.10
2022-09-12T12:46:27.311Z,47.20
2022-09-12T12:49:02.480Z,46.56
2022-09-12T12:51:50.034Z,46.98
2022-09-12T12:54:41.507Z,47.99
2022-09-12T12:57:45.819Z,48.12
2022-09-12T13:00:25.582Z,48.60
2022-09-12T13:02:59.988Z,48.71
2022-09-12T13:05:30.722Z,47.89
2022-09-12T13:08:12.146Z,49.25
2022-09-12T13:10:48.865Z,47.26
2022-09-12T13:13:26.048Z,49.16
2022-09-12T13:15:54.397Z,48.00
2022-09-12T13:18:29.794Z,54.85
2022-09-12T13:21:12.174Z,57.39
2022-09-12T13:23:40.017Z,57.86
2022-09-12T13:26:25.873Z,61.90
2022-09-12T13:29:23.355Z,60.58
2022-09-12T13:31:59.522Z,58.37
2022-09-12T13:34:47.879Z,58.40
2022-09-12T13:37:24.554Z,55.68
2022-09-12T13:40:13.566Z,54.84
2022-09-12T13:43:08.634Z,53.75
2022-09-12T13:45:39.709Z,52.74
2022-09-12T13:48:13.769Z,53.02
2022-09-12T13:50:51.297Z,52.85
2022-09-12T13:53:22.709Z,52.91
2022-09-12T13:55:58.288Z,53.63
2022-09-12T13:58:28.463Z,51.82
2022-09-12T14:01:12.695Z,54.22
2022-09-12T14:04:15.559Z,55.30
2022-09-12T14:06:51.107Z,57.05
2022-09-12T14:09:39.309Z,57.07
2022-09-12T14:12:20.838Z,56.04
2022-09-12T14:14:50.713Z,53.88
2022-09-12T14:17:24.374Z,53.67
2022-09-12T14:19:53.066Z,52.93
2022-09-12T14:22:20.601Z,52.95
2022-09-12T14:24:50.831Z,53.94
2022-09-12T14:27:25.967Z,54.10
2022-09-12T14:30:07.767Z,53.85
2022-09-12T14:32:38.545Z,52.63
2022-09-12T14:35:17.853Z,53.26
2022-09-12T14:37:51.227Z,53.31
2022-09-12T14:40:21.491Z,53.40
2022-09-12T14:42:51.206Z,54.18
2022-09-12T14:45:30.319Z,54.61
2022-09-12T14:47:59.277Z,53.34
2022-09-12T14:50:29.929Z,53.95
2022-09-12T14:53:17.195Z,54.87
2022-09-12T14:56:12.706Z,54.59
2022-09-12T14:58:41.748Z,52.96
2022-09-12T15:01:09.226Z,53.12
2022-09-12T15:03:57.524Z,54.75
2022-09-12T15:06:31.139Z,53.97
2022-09-12T15:09:02.975Z,54.11
2022-09-12T15:11:30.641Z,53.23
2022-09-12T15:13:58.049Z,53.68
2022-09-12T15:16:25.648Z,53.03
2022-09-12T15:18:53.137Z,54.30
2022-09-12T15:21:21.567Z,55.24
2022-09-12T15:23:52.633Z,56.02
2022-09-12T15:26:22.778Z,55.39
2022-09-12T15:28:51.239Z,55.48
2022-09-12T15:31:27.604Z,56.88
2022-09-12T15:33:56.516Z,55.63
2022-09-12T15:36:25.217Z,56.09
2022-09-12T15:38:53.759Z,56.24
2022-09-12T15:41:24.380Z,56.78
2022-09-12T15:43:51.874Z,57.59
2022-09-12T15:46:19.914Z,57.98
2022-09-12T15:48:47.531Z,57.47
2022-09-12T15:51:17.776Z,58.61
2022-09-12T15:53:46.190Z,57.96
2022-09-12T15:56:18.883Z,58.85
2022-09-12T15:58:58.354Z,58.33
2022-09-12T16:01:28.285Z,57.78
2022-09-12T16:03:56.612Z,58.40
2022-09-12T16:06:24.240Z,58.56
2022-09-12T16:08:51.870Z,59.45
2022-09-12T16:11:23.458Z,60.68
2022-09-12T16:13:53.250Z,59.91
2022-09-12T16:16:21.220Z,58.33
2022-09-12T16:18:49.272Z,57.34
2022-09-12T16:21:16.784Z,56.47
2022-09-12T16:23:45.121Z,56.49
2022-09-12T16:26:12.752Z,56.33
2022-09-12T16:28:40.958Z,56.22
2022-09-12T16:31:11.708Z,57.04
2022-09-12T16:33:40.130Z,56.99
2022-09-12T16:36:10.861Z,57.81
2022-09-12T16:38:43.118Z,59.08
2022-09-12T16:41:11.853Z,56.98
2022-09-12T16:43:40.682Z,57.63
2022-09-12T16:46:11.897Z,59.64
2022-09-12T16:48:52.795Z,61.42
2022-09-12T16:51:24.074Z,59.04
2022-09-12T16:53:54.281Z,58.26
2022-09-12T16:56:21.955Z,58.95
2022-09-12T16:58:49.744Z,58.68
2022-09-12T17:01:20.483Z,60.57
2022-09-12T17:03:49.005Z,59.79
2022-09-12T17:06:18.698Z,60.94
2022-09-12T17:08:49.918Z,61.58
2022-09-12T17:11:19.449Z,59.89
2022-09-12T17:14:03.917Z,60.64
2022-09-12T17:16:36.929Z,62.08
2022-09-12T17:19:05.819Z,60.33
2022-09-12T17:21:34.028Z,60.98
2022-09-12T17:24:01.887Z,61.46
2022-09-12T17:26:29.520Z,61.59
2022-09-12T17:28:57.124Z,61.47
2022-09-12T17:31:24.866Z,61.22
2022-09-12T17:33:57.520Z,63.96
2022-09-12T17:36:25.890Z,63.55
2022-09-12T17:38:54.485Z,65.10
2022-09-12T17:41:24.449Z,65.79
2022-09-12T17:43:57.603Z,66.91
2022-09-12T17:46:32.000Z,66.01
2022-09-12T17:49:01.270Z,64.54
2022-09-12T17:51:30.995Z,64.21
2022-09-12T17:54:08.596Z,66.41
2022-09-12T17:56:37.839Z,63.65
2022-09-12T17:59:07.484Z,62.98
2022-09-12T18:01:53.845Z,63.30
2022-09-12T18:04:21.463Z,62.54
2022-09-12T18:06:49.502Z,62.81
2022-09-12T18:09:22.948Z,65.71
2022-09-12T18:11:50.649Z,62.94
2022-09-12T18:14:19.461Z,64.19
2022-09-12T18:16:47.811Z,64.02
2022-09-12T18:19:16.196Z,63.51
2022-09-12T18:21:44.227Z,62.81
2022-09-12T18:24:12.167Z,62.71
2022-09-12T18:26:39.930Z,62.39
2022-09-12T18:29:08.099Z,61.96
2022-09-12T18:31:36.220Z,61.51
2022-09-12T18:34:06.223Z,60.43
2022-09-12T18:36:33.690Z,60.56
2022-09-12T18:39:01.136Z,60.49
2022-09-12T18:41:29.237Z,60.92
2022-09-12T18:43:58.897Z,62.23
2022-09-12T18:46:27.766Z,62.53
2022-09-12T18:48:57.965Z,62.90
2022-09-12T18:51:31.767Z,64.71
2022-09-12T18:54:01.913Z,64.24
2022-09-12T18:56:33.263Z,64.63
2022-09-12T18:59:03.105Z,64.71
2022-09-12T19:01:33.176Z,65.40
2022-09-12T19:04:04.915Z,65.05
2022-09-12T19:06:36.520Z,65.18
2022-09-12T19:09:07.836Z,65.00
2022-09-12T19:11:38.145Z,65.92
2022-09-12T19:14:07.747Z,65.71
2022-09-12T19:16:36.126Z,65.30
2022-09-12T19:19:03.956Z,65.29
2022-09-12T19:21:33.206Z,65.37
2022-09-12T19:24:03.771Z,66.45
2022-09-12T19:26:31.243Z,64.66
2022-09-12T19:28:59.084Z,65.07
2022-09-12T19:31:26.750Z,65.43
2022-09-12T19:33:58.840Z,65.63
2022-09-12T19:36:45.268Z,65.93
2022-09-12T19:39:14.723Z,65.87
2022-09-12T19:41:42.801Z,65.65
2022-09-12T19:44:10.310Z,65.56
2022-09-12T19:46:37.956Z,65.77
2022-09-12T19:49:05.506Z,65.95
2022-09-12T19:51:32.923Z,66.24
2022-09-12T19:54:00.430Z,65.89
2022-09-12T19:56:27.844Z,65.06
2022-09-12T19:58:56.876Z,65.59
2022-09-12T20:01:28.799Z,66.13
2022-09-12T20:03:57.833Z,66.26
2022-09-12T20:06:26.296Z,66.11
2022-09-12T20:08:54.559Z,66.34
2022-09-12T20:11:23.949Z,66.81
2022-09-12T20:13:52.105Z,65.84
2022-09-12T20:16:23.086Z,67.48
2022-09-12T20:18:59.169Z,68.96
2022-09-12T20:21:32.097Z,67.86
2022-09-12T20:24:08.298Z,69.28
2022-09-12T20:26:36.397Z,66.83
2022-09-12T20:29:05.570Z,67.32
2022-09-12T20:31:33.878Z,67.68
2022-09-12T20:34:01.384Z,67.32
2022-09-12T20:36:29.134Z,67.77
2022-09-12T20:38:59.080Z,69.77
2022-09-12T20:41:28.747Z,68.95
2022-09-12T20:43:57.350Z,67.81
2022-09-12T20:46:27.003Z,68.74
2022-09-12T20:48:55.370Z,68.48
2022-09-12T20:51:24.873Z,69.24
2022-09-12T20:53:56.519Z,72.04
2022-09-12T20:56:26.873Z,68.20
2022-09-12T20:58:57.815Z,71.10
2022-09-12T21:01:27.320Z,70.61
2022-09-12T21:03:54.952Z,69.34
2022-09-12T21:06:22.632Z,69.29
2022-09-12T21:08:50.958Z,70.77
2022-09-12T21:11:20.465Z,71.12
2022-09-12T21:13:48.046Z,69.95
2022-09-12T21:16:18.231Z,71.00
2022-09-12T21:18:46.451Z,70.53
2022-09-12T21:21:16.098Z,71.32
2022-09-12T21:23:43.592Z,70.77
2022-09-12T21:26:11.255Z,70.39
2022-09-12T21:28:39.004Z,69.73
2022-09-12T21:31:06.595Z,69.52
2022-09-12T21:33:34.113Z,69.61
2022-09-12T21:36:03.848Z,70.96
2022-09-12T21:38:32.149Z,70.86
2022-09-12T21:41:08.138Z,74.35
2022-09-12T21:43:36.640Z,71.58
2022-09-12T21:46:05.724Z,72.63
2022-09-12T21:48:33.783Z,72.06
2022-09-12T21:51:01.505Z,71.16
2022-09-12T21:53:29.282Z,71.79
2022-09-12T21:56:01.624Z,74.38
2022-09-12T21:58:29.118Z,71.82
2022-09-12T22:00:56.746Z,72.25
2022-09-12T22:03:24.538Z,72.25
2022-09-12T22:05:59.504Z,75.88
2022-09-12T22:08:26.993Z,72.26
2022-09-12T22:10:58.902Z,75.01
2022-09-12T22:13:26.691Z,73.02
2022-09-12T22:15:54.189Z,72.68
2022-09-12T22:18:21.781Z,73.05
2022-09-12T22:20:49.139Z,72.88
2022-09-12T22:23:35.077Z,73.15
2022-09-12T22:26:03.392Z,72.99
2022-09-12T22:28:32.377Z,72.97
2022-09-12T22:31:00.004Z,73.44
2022-09-12T22:33:28.447Z,74.25
2022-09-12T22:35:55.852Z,74.34
2022-09-12T22:38:23.296Z,74.62
2022-09-12T22:40:50.735Z,75.30
2022-09-12T22:43:18.182Z,75.78
2022-09-12T22:45:45.582Z,74.76
2022-09-12T22:48:13.025Z,75.11
2022-09-12T22:50:40.572Z,75.01
2022-09-12T22:53:09.174Z,74.23
2022-09-12T22:55:36.662Z,73.40
2022-09-12T22:58:04.102Z,73.73
2022-09-12T23:00:31.680Z,73.65
2022-09-12T23:02:59.241Z,74.11
2022-09-12T23:05:26.691Z,74.52
2022-09-12T23:07:54.703Z,76.03
2022-09-12T23:10:22.677Z,74.96
2022-09-12T23:12:50.471Z,74.76
2022-09-12T23:15:17.795Z,74.93
2022-09-12T23:17:45.218Z,76.12
2022-09-12T23:20:13.066Z,75.83
2022-09-12T23:22:40.490Z,76.58
2022-09-12T23:25:08.541Z,76.12
2022-09-12T23:27:36.104Z,74.80
2022-09-12T23:30:03.686Z,74.74
2022-09-12T23:32:31.890Z,74.22
2022-09-12T23:34:59.362Z,74.11
2022-09-12T23:37:27.203Z,75.01
2022-09-12T23:39:54.551Z,74.78
2022-09-12T23:42:22.082Z,75.96
2022-09-12T23:44:49.526Z,75.21
2022-09-12T23:47:18.770Z,75.32
2022-09-12T23:49:46.110Z,75.22
2022-09-12T23:52:13.483Z,76.38
2022-09-12T23:54:40.943Z,76.54
2022-09-12T23:57:08.411Z,76.50
2022-09-12T23:59:35.899Z,75.68
